Time;durP1;ratioP1;P1;durP2;ratioP2;P2;SDS_P1;SDS_P2;PMS_P1;PMS_P2;Temp;Humidity;BMP_temperature;BMP_pressure;BME280_temperature;BME280_humidity;BME280_pressure;Samples;Min_cycle;Max_cycle;Signal;HPM_P1;HPM_P2
2023/03/02 00:01:26;;;;;;;33.72;19.30;;;;;;;8.28;67.49;101466.66;5028550;28;20099;-90
2023/03/02 00:03:52;;;;;;;31.77;20.67;;;;;;;8.32;67.86;101471.72;5028546;28;20036;-91
2023/03/02 00:06:18;;;;;;;28.85;19.83;;;;;;;8.29;67.38;101471.06;5043436;28;20069;-90
2023/03/02 00:08:45;;;;;;;33.53;19.73;;;;;;;8.04;68.22;101450.16;5048642;28;20060;-91
2023/03/02 00:11:14;;;;;;;27.30;18.02;;;;;;;8.11;67.80;101459.53;5254388;23;20044;-93
2023/03/02 00:13:59;;;;;;;33.72;18.17;;;;;;;8.10;68.22;101460.53;5239242;23;20061;-90
2023/03/02 00:19:00;;;;;;;29.52;17.75;;;;;;;8.02;68.02;101452.03;5057480;23;20042;-90
2023/03/02 00:21:46;;;;;;;25.05;16.65;;;;;;;8.03;67.97;101453.78;5050273;23;20066;-88
2023/03/02 00:24:14;;;;;;;27.92;18.55;;;;;;;7.96;68.52;101447.91;4930502;29;20070;-92
2023/03/02 00:26:40;;;;;;;26.77;18.17;;;;;;;7.89;68.50;101435.81;4929328;29;20408;-91
2023/03/02 00:29:05;;;;;;;37.35;20.48;;;;;;;7.80;69.23;101422.13;4954536;29;20059;-90
2023/03/02 00:31:30;;;;;;;27.23;17.88;;;;;;;7.84;69.32;101431.69;4972005;29;20031;-90
2023/03/02 00:33:56;;;;;;;30.05;19.48;;;;;;;7.96;69.37;101433.66;4934626;29;20047;-87
2023/03/02 00:36:22;;;;;;;30.38;19.23;;;;;;;7.83;68.94;101429.97;4958032;29;20066;-89
2023/03/02 00:38:48;;;;;;;32.20;19.45;;;;;;;7.80;69.62;101424.78;4968857;28;20047;-89
2023/03/02 00:41:15;;;;;;;31.38;20.83;;;;;;;7.79;69.79;101425.72;4925084;29;20057;-89
2023/03/02 00:43:41;;;;;;;37.17;19.88;;;;;;;7.72;69.51;101408.28;4942551;29;20149;-91
2023/03/02 00:46:15;;;;;;;27.67;18.15;;;;;;;7.85;69.39;101417.34;4948199;29;20027;-90
2023/03/02 00:48:41;;;;;;;30.75;18.52;;;;;;;7.92;68.91;101413.38;4952105;29;20140;-88
2023/03/02 00:51:07;;;;;;;27.90;18.10;;;;;;;7.98;69.35;101413.00;4935961;29;20036;-89
2023/03/02 00:53:34;;;;;;;30.10;17.55;;;;;;;8.00;68.64;101421.81;4914398;29;20092;-90
2023/03/02 00:56:00;;;;;;;29.88;17.83;;;;;;;7.91;68.27;101406.28;4949724;29;20535;-89
2023/03/02 00:58:26;;;;;;;33.38;18.77;;;;;;;7.95;68.66;101413.19;4955699;29;20107;-90
2023/03/02 01:00:52;;;;;;;34.70;19.50;;;;;;;7.99;68.27;101412.03;4962164;29;20035;-91
2023/03/02 01:03:17;;;;;;;27.92;17.33;;;;;;;7.93;68.91;101407.03;4956789;29;20052;-88
2023/03/02 01:05:43;;;;;;;33.28;19.15;;;;;;;7.92;68.96;101405.34;4956181;29;20085;-92
2023/03/02 01:08:08;;;;;;;64.38;30.55;;;;;;;7.89;69.07;101405.50;4959369;29;20374;-89
2023/03/02 01:10:34;;;;;;;38.08;21.70;;;;;;;7.88;69.03;101399.28;4971920;28;20043;-88
2023/03/02 01:12:59;;;;;;;28.40;18.90;;;;;;;7.86;69.05;101403.84;4942568;29;20031;-90
2023/03/02 01:15:25;;;;;;;31.50;19.30;;;;;;;7.78;69.44;101389.19;4959314;29;20035;-91
2023/03/02 01:17:50;;;;;;;27.67;18.30;;;;;;;7.78;69.00;101383.81;4943324;29;20059;-90
2023/03/02 01:20:16;;;;;;;30.98;16.95;;;;;;;7.78;69.27;101399.88;4961663;28;20043;-90
2023/03/02 01:22:43;;;;;;;29.38;19.10;;;;;;;7.60;69.97;101407.16;4983130;28;20092;-91
2023/03/02 01:25:10;;;;;;;29.17;17.27;;;;;;;7.59;69.72;101392.91;4991137;28;20041;-89
2023/03/02 01:27:35;;;;;;;31.17;19.27;;;;;;;7.51;69.86;101380.91;5013562;28;20046;-90
2023/03/02 01:30:01;;;;;;;27.48;17.58;;;;;;;7.70;69.69;101391.44;4992272;28;20034;-90
2023/03/02 01:32:27;;;;;;;30.50;19.50;;;;;;;7.73;69.27;101396.63;5006889;28;20022;-90
2023/03/02 01:34:52;;;;;;;31.52;19.48;;;;;;;7.62;69.39;101379.34;5014789;28;20034;-89
2023/03/02 01:37:19;;;;;;;30.65;18.67;;;;;;;7.73;69.27;101385.91;5016214;28;20035;-89
2023/03/02 01:39:45;;;;;;;29.63;19.42;;;;;;;7.67;68.64;101377.25;5016205;28;20045;-91
2023/03/02 01:42:11;;;;;;;27.77;18.27;;;;;;;7.73;69.30;101388.59;5016561;28;20022;-90
2023/03/02 01:44:45;;;;;;;31.88;18.77;;;;;;;7.77;68.64;101384.78;4999685;28;20030;-90
2023/03/02 01:47:22;;;;;;;28.35;18.20;;;;;;;7.77;68.62;101393.66;5017377;28;20026;-90
2023/03/02 01:49:58;;;;;;;28.90;17.13;;;;;;;7.84;68.92;101394.19;5001070;28;20043;-90
2023/03/02 01:52:25;;;;;;;29.42;17.85;;;;;;;7.88;68.96;101396.59;5015395;28;20105;-91
2023/03/02 01:54:53;;;;;;;37.80;19.17;;;;;;;7.93;68.41;101388.28;5010032;28;20030;-90
2023/03/02 01:57:24;;;;;;;31.98;18.45;;;;;;;7.97;68.33;101384.50;4993158;28;20076;-91
2023/03/02 01:59:56;;;;;;;25.27;17.30;;;;;;;7.83;67.98;101371.88;5007767;28;20054;-89
2023/03/02 02:02:22;;;;;;;25.52;17.13;;;;;;;7.79;68.49;101390.91;5010365;28;20026;-92
2023/03/02 02:04:49;;;;;;;30.85;16.75;;;;;;;7.74;68.06;101385.81;5003143;28;20058;-91
2023/03/02 02:07:15;;;;;;;28.65;18.45;;;;;;;7.81;68.43;101383.66;5010622;28;20056;-90
2023/03/02 02:09:45;;;;;;;24.83;17.13;;;;;;;7.87;67.63;101388.66;5009490;28;20114;-91
2023/03/02 02:12:16;;;;;;;35.35;19.42;;;;;;;7.81;67.35;101378.28;4993470;28;20026;-90
2023/03/02 02:14:43;;;;;;;28.33;16.80;;;;;;;7.78;67.49;101395.41;4993275;28;20560;-90
2023/03/02 02:17:10;;;;;;;31.30;18.08;;;;;;;7.59;68.21;101374.19;5005444;28;20483;-90
2023/03/02 02:19:50;;;;;;;25.23;17.13;;;;;;;7.68;68.06;101388.84;5002205;28;20034;-92
2023/03/02 02:22:31;;;;;;;27.45;17.60;;;;;;;7.62;68.87;101387.38;5000085;28;20207;-93
2023/03/02 02:25:02;;;;;;;25.73;15.73;;;;;;;7.66;68.31;101388.06;4999873;28;20113;-91
2023/03/02 02:27:32;;;;;;;27.20;16.85;;;;;;;7.53;68.68;101387.91;5006769;28;20027;-92
2023/03/02 02:29:59;;;;;;;27.95;15.68;;;;;;;7.37;68.88;101379.00;4993372;28;20037;-92
2023/03/02 02:32:31;;;;;;;26.08;16.83;;;;;;;7.43;69.14;101392.03;5013251;28;20034;-89
2023/03/02 02:35:03;;;;;;;25.40;16.80;;;;;;;7.46;69.28;101394.53;5022462;28;20053;-90
2023/03/02 02:37:41;;;;;;;31.95;17.30;;;;;;;7.44;69.42;101391.09;5022274;28;20031;-90
2023/03/02 02:40:19;;;;;;;26.88;16.52;;;;;;;7.59;69.53;101390.22;5004169;28;20049;-91
2023/03/02 02:42:48;;;;;;;24.60;16.33;;;;;;;7.59;68.81;101384.00;4999217;28;20113;-92
2023/03/02 02:45:16;;;;;;;26.27;16.02;;;;;;;7.51;68.48;101388.94;4999193;28;20104;-94
2023/03/02 02:47:42;;;;;;;28.33;17.13;;;;;;;7.46;68.55;101389.19;4981735;28;20038;-90
2023/03/02 02:50:19;;;;;;;28.13;17.30;;;;;;;7.51;68.66;101376.44;4999259;28;20104;-92
2023/03/02 02:52:50;;;;;;;28.70;16.55;;;;;;;7.33;68.83;101373.94;4999179;28;20114;-91
2023/03/02 02:55:20;;;;;;;28.42;17.52;;;;;;;7.37;68.76;101379.00;4998459;28;20035;-90
2023/03/02 02:57:46;;;;;;;27.75;17.25;;;;;;;7.41;69.49;101385.94;5001117;28;20030;-90
2023/03/02 03:00:18;;;;;;;31.30;17.58;;;;;;;7.45;68.68;101375.91;5012965;28;20034;-91
2023/03/02 03:02:48;;;;;;;30.48;17.30;;;;;;;7.44;69.28;101380.41;4997819;28;20089;-90
2023/03/02 03:05:15;;;;;;;28.63;17.85;;;;;;;7.45;68.77;101384.81;4977441;28;20046;-89
2023/03/02 03:07:40;;;;;;;29.60;18.35;;;;;;;7.50;68.56;101387.22;4977154;28;20482;-91
2023/03/02 03:10:28;;;;;;;31.92;17.63;;;;;;;7.58;69.11;101383.16;4994785;28;20046;-91
2023/03/02 03:12:54;;;;;;;29.58;17.23;;;;;;;7.54;68.56;101364.69;4994769;28;20027;-90
2023/03/02 03:15:20;;;;;;;31.10;18.27;;;;;;;7.63;68.50;101365.03;4937117;29;20187;-91
2023/03/02 03:17:54;;;;;;;30.83;18.73;;;;;;;7.59;68.35;101368.81;4938025;29;20122;-91
2023/03/02 03:20:21;;;;;;;33.35;19.40;;;;;;;7.63;67.98;101370.38;4951738;29;20082;-91
2023/03/02 03:22:47;;;;;;;31.38;17.27;;;;;;;7.60;67.99;101367.00;4934455;29;20563;-90
2023/03/02 03:25:14;;;;;;;30.60;18.17;;;;;;;7.69;67.56;101385.22;4934623;29;20047;-91
2023/03/02 03:27:41;;;;;;;33.20;18.88;;;;;;;7.67;67.28;101376.44;4938316;29;20035;-91
2023/03/02 03:30:09;;;;;;;31.60;18.10;;;;;;;7.69;67.86;101385.22;4944165;29;20051;-92
2023/03/02 03:32:35;;;;;;;38.80;21.15;;;;;;;7.67;67.62;101382.63;4910038;29;20036;-90
2023/03/02 03:35:01;;;;;;;31.23;17.02;;;;;;;7.65;67.91;101389.88;4939402;29;20112;-91
2023/03/02 03:37:27;;;;;;;31.02;18.50;;;;;;;7.57;67.49;101381.44;4923933;29;20051;-88
2023/03/02 03:39:52;;;;;;;34.35;19.58;;;;;;;7.67;67.96;101392.50;4922220;29;20036;-92
2023/03/02 03:42:18;;;;;;;29.48;17.73;;;;;;;7.60;67.49;101389.28;4899423;29;20620;-91
2023/03/02 03:44:43;;;;;;;30.80;18.30;;;;;;;7.52;67.73;101372.78;4915732;29;20119;-90
2023/03/02 03:47:09;;;;;;;37.00;19.30;;;;;;;7.60;67.41;101394.66;4932021;28;20039;-90
2023/03/02 03:49:35;;;;;;;30.83;19.23;;;;;;;7.67;67.39;101404.03;4938356;29;20763;-91
2023/03/02 03:52:02;;;;;;;34.70;20.10;;;;;;;7.63;67.87;101407.00;4938988;28;20032;-90
2023/03/02 03:54:29;;;;;;;28.23;18.58;;;;;;;7.53;67.35;101395.94;4958598;28;20036;-90
2023/03/02 03:56:55;;;;;;;25.80;17.50;;;;;;;7.50;67.09;101406.81;4971610;28;20035;-93
2023/03/02 03:59:23;;;;;;;35.55;20.02;;;;;;;7.54;67.62;101421.75;4956203;28;20529;-91
2023/03/02 04:01:51;;;;;;;31.65;19.65;;;;;;;7.58;67.33;101414.44;4954789;28;20129;-91
2023/03/02 04:04:20;;;;;;;34.72;19.63;;;;;;;7.59;67.48;101419.69;4937649;29;20527;-93
2023/03/02 04:06:46;;;;;;;40.35;22.08;;;;;;;7.54;67.48;101418.22;4953113;29;20031;-91
2023/03/02 04:09:14;;;;;;;34.47;19.77;;;;;;;7.52;67.19;101415.63;4940861;28;20050;-92
2023/03/02 04:11:41;;;;;;;32.00;19.83;;;;;;;7.52;67.58;101423.66;4975804;28;20023;-93
2023/03/02 04:14:07;;;;;;;29.70;18.95;;;;;;;7.70;67.56;101423.56;4975399;28;20035;-90
2023/03/02 04:16:33;;;;;;;35.40;20.83;;;;;;;7.65;66.72;101416.66;4956837;28;20049;-91
2023/03/02 04:18:59;;;;;;;33.10;20.50;;;;;;;7.66;66.52;101428.22;4974148;28;20105;-83
2023/03/02 04:21:25;;;;;;;30.27;19.80;;;;;;;7.46;67.74;101413.28;4983114;28;20134;-85
2023/03/02 04:23:51;;;;;;;35.85;20.35;;;;;;;7.47;67.15;101411.47;4975311;28;20042;-86
2023/03/02 04:26:17;;;;;;;35.10;19.30;;;;;;;7.59;66.92;101422.34;4995078;28;20053;-87
2023/03/02 04:28:42;;;;;;;37.05;19.13;;;;;;;7.49;66.88;101422.97;4996622;28;20036;-86
2023/03/02 04:31:08;;;;;;;40.92;20.55;;;;;;;7.54;67.27;101424.44;4995166;28;20042;-85
2023/03/02 04:33:33;;;;;;;37.00;21.35;;;;;;;7.59;67.89;101433.06;5002124;28;20027;-84
2023/03/02 04:35:59;;;;;;;34.42;20.73;;;;;;;7.64;67.30;101422.94;4998037;28;20027;-86
2023/03/02 04:38:28;;;;;;;41.03;22.73;;;;;;;7.48;68.14;101408.72;5009179;28;20061;-87
2023/03/02 04:40:55;;;;;;;47.35;21.90;;;;;;;7.70;67.95;101432.47;4995031;28;20287;-87
2023/03/02 04:43:21;;;;;;;35.00;22.92;;;;;;;7.74;67.57;101430.47;4995110;28;20416;-87
2023/03/02 04:45:47;;;;;;;44.47;22.33;;;;;;;7.77;67.05;101419.59;4994945;28;20034;-86
2023/03/02 04:48:12;;;;;;;39.55;21.60;;;;;;;7.95;66.50;101442.66;4995047;28;20105;-82
2023/03/02 04:50:39;;;;;;;46.03;20.67;;;;;;;7.89;65.49;101451.03;4974461;28;20033;-84
2023/03/02 04:53:05;;;;;;;33.92;20.65;;;;;;;7.77;65.25;101436.50;4992051;28;20101;-81
2023/03/02 04:55:30;;;;;;;34.50;19.25;;;;;;;7.68;66.43;101435.22;4991977;28;20113;-81
2023/03/02 04:57:56;;;;;;;35.53;22.25;;;;;;;7.86;65.47;101446.69;4991784;28;20454;-80
2023/03/02 05:00:21;;;;;;;36.47;21.38;;;;;;;7.89;65.35;101451.03;4991463;28;20077;-81
2023/03/02 05:02:47;;;;;;;44.35;22.73;;;;;;;7.95;65.51;101450.69;4990975;28;20019;-87
2023/03/02 05:05:17;;;;;;;49.17;25.23;;;;;;;7.98;65.85;101446.00;4992410;28;20030;-86
2023/03/02 05:07:43;;;;;;;53.38;27.20;;;;;;;8.03;66.26;101448.44;4992641;28;20397;-87
2023/03/02 05:10:10;;;;;;;39.28;23.63;;;;;;;8.08;65.77;101457.03;4992803;28;20026;-86
2023/03/02 05:12:53;;;;;;;44.92;21.42;;;;;;;8.07;64.60;101463.38;4992379;28;20639;-85
2023/03/02 05:15:20;;;;;;;34.70;21.48;;;;;;;8.01;64.78;101434.25;4941895;28;20044;-86
2023/03/02 05:17:46;;;;;;;41.30;25.60;;;;;;;8.17;64.37;101451.16;4992796;28;20537;-84
2023/03/02 05:20:12;;;;;;;37.00;22.73;;;;;;;8.17;65.17;101461.88;4992981;28;20191;-85
2023/03/02 05:22:37;;;;;;;35.10;19.77;;;;;;;8.02;64.38;101444.88;4982765;28;20033;-86
2023/03/02 05:25:04;;;;;;;37.55;21.60;;;;;;;8.04;64.64;101450.16;4992434;28;20409;-85
2023/03/02 05:27:29;;;;;;;37.20;22.23;;;;;;;8.19;64.92;101465.34;4995954;28;20053;-81
2023/03/02 05:29:54;;;;;;;34.50;21.08;;;;;;;8.31;64.95;101464.66;4992126;28;20463;-81
2023/03/02 05:32:20;;;;;;;38.28;22.17;;;;;;;8.36;64.82;101470.59;4994522;28;20038;-83
2023/03/02 05:34:45;;;;;;;38.47;22.30;;;;;;;8.27;64.58;101463.06;5011433;28;20011;-87
2023/03/02 05:37:11;;;;;;;37.42;22.38;;;;;;;8.08;64.75;101465.09;5014522;28;20034;-88
2023/03/02 05:39:36;;;;;;;36.63;21.38;;;;;;;8.13;64.64;101460.34;4980482;28;20038;-84
2023/03/02 05:42:02;;;;;;;34.00;20.35;;;;;;;8.08;65.33;101457.03;4994563;28;20037;-83
2023/03/02 05:44:27;;;;;;;33.97;22.55;;;;;;;8.04;65.64;101451.00;4998871;28;20084;-93
2023/03/02 05:46:53;;;;;;;35.22;21.98;;;;;;;8.15;65.66;101467.34;5005506;28;20032;-81
2023/03/02 05:49:18;;;;;;;33.33;20.02;;;;;;;8.18;64.90;101468.97;5013208;28;20026;-83
2023/03/02 05:51:44;;;;;;;39.25;22.63;;;;;;;8.12;65.14;101466.63;5001420;28;20107;-81
2023/03/02 05:54:09;;;;;;;35.20;20.30;;;;;;;8.06;65.12;101475.03;4996390;28;20061;-84
2023/03/02 05:56:34;;;;;;;38.67;22.05;;;;;;;8.02;65.25;101468.13;4996650;28;20091;-84
2023/03/02 05:59:00;;;;;;;36.08;22.75;;;;;;;7.96;64.93;101463.09;5121464;23;20066;-81
2023/03/02 06:01:25;;;;;;;36.70;23.88;;;;;;;8.10;64.99;101487.31;5034454;28;20038;-83
2023/03/02 06:03:51;;;;;;;35.38;21.10;;;;;;;8.02;65.26;101481.50;5035291;28;20089;-82
2023/03/02 06:06:16;;;;;;;46.45;22.48;;;;;;;8.07;65.51;101485.66;5034746;28;20042;-92
2023/03/02 06:08:42;;;;;;;38.55;22.90;;;;;;;8.06;65.95;101485.75;5015122;28;20026;-87
2023/03/02 06:11:08;;;;;;;37.22;23.65;;;;;;;8.07;64.71;101487.50;5014248;28;20022;-85
2023/03/02 06:13:35;;;;;;;40.63;22.33;;;;;;;8.03;65.32;101486.78;5015416;28;20033;-93
2023/03/02 06:16:01;;;;;;;40.33;23.17;;;;;;;7.97;65.27;101486.28;5014971;28;20109;-89
2023/03/02 06:18:26;;;;;;;36.58;22.17;;;;;;;7.95;65.30;101499.75;5016119;28;20410;-86
2023/03/02 06:20:52;;;;;;;39.97;23.27;;;;;;;7.83;65.59;101504.94;5012431;28;20545;-88
2023/03/02 06:23:17;;;;;;;45.60;25.83;;;;;;;7.77;66.05;101502.63;5012335;28;20403;-87
2023/03/02 06:25:47;;;;;;;42.00;24.52;;;;;;;7.92;66.03;101504.44;5013362;28;20026;-85
2023/03/02 06:28:18;;;;;;;43.95;25.95;;;;;;;7.89;65.32;101500.09;5012586;28;20033;-89
2023/03/02 06:30:47;;;;;;;39.28;24.40;;;;;;;7.85;65.17;101500.38;5016329;28;20097;-83
2023/03/02 06:33:16;;;;;;;42.65;25.42;;;;;;;7.92;65.24;101491.88;5034492;28;20080;-81
2023/03/02 06:35:42;;;;;;;40.75;25.33;;;;;;;8.00;65.34;101508.41;5031890;28;20021;-84
2023/03/02 06:38:08;;;;;;;53.25;25.15;;;;;;;7.97;65.01;101510.38;5015174;28;20517;-88
2023/03/02 06:40:33;;;;;;;42.42;24.90;;;;;;;7.98;64.90;101496.06;5021852;28;20048;-81
2023/03/02 06:42:59;;;;;;;47.08;24.10;;;;;;;8.17;64.94;101512.78;5018569;28;20033;-90
2023/03/02 06:45:26;;;;;;;39.17;24.90;;;;;;;8.33;64.69;101505.63;5018248;28;20119;-87
2023/03/02 06:47:52;;;;;;;49.38;27.77;;;;;;;8.42;64.28;101505.09;5015579;28;20121;-83
2023/03/02 06:50:18;;;;;;;43.78;24.65;;;;;;;8.56;64.28;101504.28;5014494;28;20097;-85
2023/03/02 06:52:43;;;;;;;47.58;25.08;;;;;;;8.73;63.91;101507.69;4996937;28;20034;-84
2023/03/02 06:55:09;;;;;;;42.72;26.80;;;;;;;8.83;63.04;101510.69;5014558;28;20034;-87
2023/03/02 06:57:34;;;;;;;50.60;27.50;;;;;;;8.88;62.16;101518.44;5015374;28;20022;-90
2023/03/02 07:00:05;;;;;;;45.00;26.73;;;;;;;9.02;61.45;101505.09;5029400;28;20049;-82
2023/03/02 07:02:31;;;;;;;49.15;26.92;;;;;;;8.99;61.26;101506.09;5034989;28;20481;-85
2023/03/02 07:04:56;;;;;;;57.08;29.77;;;;;;;9.02;60.87;101511.28;5035628;28;20045;-88
2023/03/02 07:07:21;;;;;;;47.83;30.52;;;;;;;9.08;60.94;101510.06;5035579;28;20392;-88
2023/03/02 07:09:47;;;;;;;64.90;35.67;;;;;;;9.13;61.17;101524.06;5035642;28;20087;-85
2023/03/02 07:12:12;;;;;;;41.08;27.95;;;;;;;8.92;61.25;101509.28;5038959;28;20540;-87
2023/03/02 07:14:38;;;;;;;50.70;27.33;;;;;;;9.01;60.90;101514.06;5035757;28;20473;-88
2023/03/02 07:17:04;;;;;;;47.97;27.13;;;;;;;9.15;60.41;101519.44;5034516;28;20033;-87
2023/03/02 07:19:29;;;;;;;47.05;28.50;;;;;;;8.86;60.01;101510.50;5034866;28;20088;-86
2023/03/02 07:21:55;;;;;;;48.03;27.17;;;;;;;8.93;61.34;101513.69;5033015;28;20029;-84
2023/03/02 07:24:21;;;;;;;44.38;27.17;;;;;;;8.90;60.86;101505.81;5033993;28;20033;-88
2023/03/02 07:26:47;;;;;;;44.28;26.00;;;;;;;9.12;61.04;101503.53;5034587;28;20140;-88
2023/03/02 07:29:12;;;;;;;54.80;29.13;;;;;;;9.10;60.81;101502.78;5037121;28;20176;-81
2023/03/02 07:31:38;;;;;;;55.53;29.42;;;;;;;9.18;60.70;101503.16;5056094;28;20029;-82
2023/03/02 07:34:03;;;;;;;48.45;27.67;;;;;;;9.14;60.63;101490.91;5055756;28;20092;-85
2023/03/02 07:36:29;;;;;;;45.80;27.00;;;;;;;9.18;60.58;101511.22;5034682;28;20483;-86
2023/03/02 07:38:54;;;;;;;51.88;27.35;;;;;;;9.23;60.62;101509.13;5033012;28;20044;-88
2023/03/02 07:41:21;;;;;;;53.58;28.67;;;;;;;9.32;60.75;101500.50;5033198;28;20079;-88
2023/03/02 07:43:47;;;;;;;53.42;26.95;;;;;;;9.17;60.27;101498.78;5033133;28;20036;-88
2023/03/02 07:46:12;;;;;;;64.65;31.10;;;;;;;9.01;60.99;101481.88;5032802;28;20030;-87
2023/03/02 07:48:38;;;;;;;53.78;27.30;;;;;;;9.15;60.75;101503.34;4997116;28;20042;-89
2023/03/02 07:51:05;;;;;;;48.65;28.58;;;;;;;9.07;60.75;101503.84;5031211;28;20099;-87
2023/03/02 07:53:31;;;;;;;46.80;27.63;;;;;;;8.94;62.06;101507.34;5032120;28;20057;-88
2023/03/02 07:55:57;;;;;;;50.30;27.02;;;;;;;9.00;61.56;101507.84;5032843;28;20508;-87
2023/03/02 07:58:23;;;;;;;50.30;26.75;;;;;;;8.96;61.68;101498.25;5032769;28;20044;-86
2023/03/02 08:00:48;;;;;;;56.60;30.65;;;;;;;9.12;61.90;101506.22;5033737;28;20163;-85
2023/03/02 08:03:14;;;;;;;109.78;71.22;;;;;;;9.18;61.72;101500.47;5037441;28;20065;-87
2023/03/02 08:05:39;;;;;;;56.88;30.15;;;;;;;9.18;61.76;101490.59;5034290;28;20040;-84
2023/03/02 08:08:05;;;;;;;47.78;27.42;;;;;;;9.32;62.41;101499.63;5034011;28;20029;-86
2023/03/02 08:10:33;;;;;;;62.63;29.15;;;;;;;9.20;61.74;101487.84;5032582;28;20017;-84
2023/03/02 08:12:58;;;;;;;51.70;27.25;;;;;;;9.32;61.99;101505.88;5032350;28;20036;-86
2023/03/02 08:15:24;;;;;;;56.78;29.08;;;;;;;9.26;61.99;101498.19;5032573;28;20021;-87
2023/03/02 08:17:49;;;;;;;61.75;28.90;;;;;;;9.19;61.92;101496.84;5033211;28;20113;-88
2023/03/02 08:20:15;;;;;;;52.33;29.40;;;;;;;9.11;62.34;101491.09;5032115;28;20021;-85
2023/03/02 08:22:40;;;;;;;58.42;28.67;;;;;;;9.11;62.43;101502.66;5032907;28;20033;-86
2023/03/02 08:25:06;;;;;;;51.05;28.42;;;;;;;9.25;62.82;101491.97;5033245;28;20033;-86
2023/03/02 08:27:32;;;;;;;44.20;25.83;;;;;;;9.25;62.55;101493.78;5033140;28;20040;-85
2023/03/02 08:29:57;;;;;;;53.05;29.45;;;;;;;9.35;62.63;101513.75;5054247;28;20030;-82
2023/03/02 08:32:23;;;;;;;52.05;28.15;;;;;;;9.40;62.93;101500.00;5055487;28;20044;-83
2023/03/02 08:34:50;;;;;;;49.00;28.55;;;;;;;9.49;62.89;101505.66;5037176;28;20580;-89
2023/03/02 08:37:17;;;;;;;60.22;29.27;;;;;;;9.54;62.63;101508.91;5031818;28;20100;-87
2023/03/02 08:39:42;;;;;;;48.47;28.02;;;;;;;9.37;62.06;101501.06;5031414;28;20021;-87
2023/03/02 08:42:08;;;;;;;62.67;32.33;;;;;;;9.07;63.38;101502.97;5013249;28;20331;-87
2023/03/02 08:44:33;;;;;;;50.03;28.13;;;;;;;9.17;62.99;101504.13;5031731;28;20562;-85
2023/03/02 08:46:58;;;;;;;49.17;30.15;;;;;;;8.98;63.21;101514.25;5031989;28;20056;-87
2023/03/02 08:49:24;;;;;;;54.92;29.35;;;;;;;8.89;63.30;101517.50;5032108;28;20051;-84
2023/03/02 08:51:52;;;;;;;60.53;29.30;;;;;;;8.71;64.53;101517.63;5032168;28;20037;-86
2023/03/02 08:54:19;;;;;;;53.65;30.05;;;;;;;8.79;64.53;101510.97;5032461;28;20041;-87
2023/03/02 08:56:44;;;;;;;52.63;29.25;;;;;;;8.85;64.35;101519.50;5032790;28;20033;-81
2023/03/02 08:59:11;;;;;;;61.85;31.02;;;;;;;8.69;64.02;101506.13;5032482;28;20048;-88
2023/03/02 09:01:37;;;;;;;48.20;30.05;;;;;;;8.67;64.61;101510.75;5033015;28;20146;-85
2023/03/02 09:04:05;;;;;;;50.58;30.17;;;;;;;8.85;64.76;101524.00;5032588;28;20022;-86
2023/03/02 09:06:34;;;;;;;51.92;30.90;;;;;;;8.94;64.53;101515.41;5031105;28;20029;-86
2023/03/02 09:09:00;;;;;;;54.25;30.85;;;;;;;8.95;64.51;101509.09;5032736;28;20159;-88
2023/03/02 09:11:26;;;;;;;51.05;29.23;;;;;;;9.17;63.60;101512.19;5032878;28;20782;-87
2023/03/02 09:13:53;;;;;;;70.28;30.42;;;;;;;9.19;63.34;101516.50;5032779;28;20083;-87
2023/03/02 09:16:19;;;;;;;53.63;27.83;;;;;;;9.32;62.73;101518.44;5032230;28;20026;-86
2023/03/02 09:18:45;;;;;;;77.30;29.42;;;;;;;9.40;62.75;101510.75;5034808;28;20389;-85
2023/03/02 09:21:10;;;;;;;46.72;25.75;;;;;;;9.42;61.53;101515.06;5034280;28;20040;-88
2023/03/02 09:23:36;;;;;;;45.75;26.92;;;;;;;9.52;61.80;101507.28;5033989;28;20034;-83
2023/03/02 09:26:02;;;;;;;49.70;27.52;;;;;;;9.48;61.44;101487.00;5034208;28;20531;-88
2023/03/02 09:28:28;;;;;;;45.45;24.92;;;;;;;9.68;61.19;101490.13;5052153;28;20378;-82
2023/03/02 09:30:58;;;;;;;55.80;24.73;;;;;;;9.76;60.65;101493.16;5051405;28;20029;-82
2023/03/02 09:33:23;;;;;;;43.28;23.40;;;;;;;9.65;60.15;101498.38;5020163;28;20021;-87
2023/03/02 09:35:49;;;;;;;49.03;21.55;;;;;;;9.76;59.59;101492.31;5031517;28;20101;-84
2023/03/02 09:38:16;;;;;;;62.08;25.08;;;;;;;9.74;58.83;101486.19;5031629;28;20112;-84
2023/03/02 09:41:22;;;;;;;62.50;22.58;;;;;;;9.85;58.85;101481.81;5031043;28;20044;-86
2023/03/02 09:44:22;;;;;;;30.23;19.13;;;;;;;9.80;57.52;101467.84;4949954;28;20491;-84
2023/03/02 09:47:04;;;;;;;50.22;21.52;;;;;;;10.06;57.29;101479.56;4950217;28;20041;-86
2023/03/02 09:49:47;;;;;;;42.07;19.07;;;;;;;10.02;55.43;101461.94;4949867;28;20039;-86
2023/03/02 09:52:35;;;;;;;56.85;20.17;;;;;;;10.15;55.56;101473.59;4950583;28;20031;-88
2023/03/02 09:55:14;;;;;;;32.63;18.48;;;;;;;10.19;53.11;101468.91;4949632;28;20071;-86
2023/03/02 09:57:41;;;;;;;46.42;17.83;;;;;;;10.24;52.16;101473.00;4950018;28;20051;-86
2023/03/02 10:00:11;;;;;;;34.80;18.00;;;;;;;10.20;51.98;101460.75;4950402;28;20055;-84
2023/03/02 10:02:45;;;;;;;37.45;18.02;;;;;;;10.23;51.36;101448.91;4949930;28;20051;-85
2023/03/02 10:05:37;;;;;;;50.72;20.70;;;;;;;10.24;51.17;101456.03;4934284;28;20035;-88
2023/03/02 10:08:02;;;;;;;41.50;17.08;;;;;;;10.53;51.17;101462.13;4892675;29;20044;-89
2023/03/02 10:10:34;;;;;;;63.35;17.45;;;;;;;10.56;50.90;101446.63;4861746;29;20047;-86
2023/03/02 10:13:39;;;;;;;44.70;19.03;;;;;;;10.84;49.90;101454.53;4893820;29;20048;-88
2023/03/02 10:16:58;;;;;;;45.78;19.45;;;;;;;10.95;50.13;101436.78;4897642;29;20545;-87
2023/03/02 10:19:41;;;;;;;58.28;19.42;;;;;;;11.04;50.21;101433.47;4844696;29;20145;-85
2023/03/02 10:22:27;;;;;;;65.68;22.65;;;;;;;11.25;50.70;101440.84;4869064;29;20051;-87
2023/03/02 10:25:07;;;;;;;58.38;20.95;;;;;;;11.29;51.51;101433.41;4898343;29;20036;-88
2023/03/02 10:27:41;;;;;;;72.22;22.90;;;;;;;11.35;51.28;101443.75;4877744;29;20044;-83
2023/03/02 10:30:18;;;;;;;85.90;24.15;;;;;;;11.41;51.58;101446.00;4912757;29;20048;-82
2023/03/02 10:32:51;;;;;;;47.90;22.42;;;;;;;11.46;51.58;101438.47;4909581;29;20051;-80
2023/03/02 10:35:20;;;;;;;59.85;22.85;;;;;;;11.72;51.91;101434.75;4920918;29;20044;-86
2023/03/02 10:37:46;;;;;;;67.95;23.35;;;;;;;12.02;51.37;101425.41;4921013;29;20068;-83
2023/03/02 10:40:47;;;;;;;65.95;23.40;;;;;;;12.28;50.77;101432.38;4919823;29;20032;-86
2023/03/02 10:43:21;;;;;;;58.78;23.15;;;;;;;12.25;50.14;101416.44;4880238;29;20041;-86
2023/03/02 10:46:01;;;;;;;40.38;21.00;;;;;;;12.20;49.62;101426.72;4909456;29;20039;-84
2023/03/02 10:48:26;;;;;;;73.70;23.33;;;;;;;12.40;49.50;101426.06;4902168;29;20262;-87
2023/03/02 10:50:54;;;;;;;100.25;23.73;;;;;;;12.38;48.87;101422.63;4962066;28;20059;-86
2023/03/02 10:53:20;;;;;;;47.05;21.65;;;;;;;12.43;49.61;101423.13;4975879;28;20078;-87
2023/03/02 10:55:49;;;;;;;63.03;21.65;;;;;;;12.51;49.50;101415.28;4972611;28;20438;-84
2023/03/02 10:58:25;;;;;;;44.72;20.45;;;;;;;12.58;49.02;101424.63;4972587;28;20592;-87
2023/03/02 11:01:06;;;;;;;52.38;19.25;;;;;;;12.43;49.57;101415.88;4972739;28;20050;-87
2023/03/02 11:03:32;;;;;;;41.83;20.65;;;;;;;12.23;49.63;101404.91;4974129;28;20058;-86
2023/03/02 11:06:15;;;;;;;42.80;20.05;;;;;;;12.25;49.87;101403.81;4972239;28;20053;-85
2023/03/02 11:08:40;;;;;;;48.85;19.40;;;;;;;12.26;50.08;101394.72;4971869;28;20027;-87
2023/03/02 11:11:21;;;;;;;106.05;23.98;;;;;;;12.36;50.18;101397.56;4974020;28;20035;-86
2023/03/02 11:13:46;;;;;;;44.85;20.23;;;;;;;12.32;49.99;101399.63;4971824;28;20595;-87
2023/03/02 11:16:18;;;;;;;64.90;24.02;;;;;;;11.68;51.29;101406.28;4972980;28;20085;-86
2023/03/02 11:18:49;;;;;;;82.45;24.48;;;;;;;11.66;51.26;101385.81;4976947;28;20039;-87
2023/03/02 11:21:21;;;;;;;38.60;20.60;;;;;;;11.59;51.48;101401.56;5036931;28;20040;-87
2023/03/02 11:24:08;;;;;;;70.95;25.13;;;;;;;11.62;52.58;101395.13;5038072;28;20425;-86
2023/03/02 11:26:52;;;;;;;44.10;22.63;;;;;;;11.65;51.89;101395.72;5055110;28;20025;-81